Time;durP1;ratioP1;P1;durP2;ratioP2;P2;SDS_P1;SDS_P2;PMS_P1;PMS_P2;Temp;Humidity;BMP_temperature;BMP_pressure;BME280_temperature;BME280_humidity;BME280_pressure;Samples;Min_cycle;Max_cycle;Signal;HPM_P1;HPM_P2
2022/03/21 00:00:39;;;;;;;89.68;53.72;;;;;;;;;;5084116;28;20466;-77
2022/03/21 00:03:07;;;;;;;116.22;63.05;;;;;;;;;;5092145;28;20772;-77
2022/03/21 00:05:35;;;;;;;94.95;55.10;;;;;;;;;;5080892;28;20101;-77
2022/03/21 00:08:03;;;;;;;96.20;57.72;;;;;;;;;;5087422;28;20052;-77
2022/03/21 00:10:32;;;;;;;126.50;64.38;;;;;;;;;;5084001;28;20140;-77
2022/03/21 00:13:00;;;;;;;108.10;59.13;;;;;;;;;;5089420;28;20064;-76
2022/03/21 00:15:28;;;;;;;117.80;64.82;;;;;;;;;;5084964;28;20884;-77
2022/03/21 00:17:56;;;;;;;123.43;59.72;;;;;;;;;;5082097;28;20618;-77
2022/03/21 00:20:25;;;;;;;106.13;59.08;;;;;;;;;;5086705;28;20044;-77
2022/03/21 00:22:53;;;;;;;108.53;57.53;;;;;;;;;;5084268;28;20048;-77
2022/03/21 00:25:20;;;;;;;103.35;55.95;;;;;;;;;;5084255;28;20126;-77
2022/03/21 00:27:49;;;;;;;180.18;67.95;;;;;;;;;;5084694;28;20101;-77
2022/03/21 00:30:17;;;;;;;190.23;67.03;;;;;;;;;;5082564;28;20052;-77
2022/03/21 00:32:45;;;;;;;102.07;58.25;;;;;;;;;;5086087;28;20054;-77
2022/03/21 00:35:14;;;;;;;155.02;65.57;;;;;;;;;;5084617;28;20051;-77
2022/03/21 00:37:42;;;;;;;116.70;60.75;;;;;;;;;;5081135;28;20056;-77
2022/03/21 00:40:10;;;;;;;114.22;60.88;;;;;;;;;;5084251;28;20106;-77
2022/03/21 00:42:38;;;;;;;111.60;56.45;;;;;;;;;;5082842;28;20039;-77
2022/03/21 00:45:09;;;;;;;117.85;56.72;;;;;;;;;;5085133;28;20588;-77
2022/03/21 00:47:36;;;;;;;104.28;55.22;;;;;;;;;;5083253;28;20138;-77
2022/03/21 00:50:04;;;;;;;93.00;54.25;;;;;;;;;;5083224;28;20125;-76
2022/03/21 00:52:32;;;;;;;98.68;57.10;;;;;;;;;;5088298;28;20131;-76
2022/03/21 00:55:00;;;;;;;105.75;61.72;;;;;;;;;;5083428;28;20071;-76
2022/03/21 00:57:28;;;;;;;98.15;57.67;;;;;;;;;;5079092;28;20084;-76
2022/03/21 00:59:55;;;;;;;105.47;63.10;;;;;;;;;;5086139;28;20265;-76
2022/03/21 01:02:23;;;;;;;91.47;55.10;;;;;;;;;;5080245;28;20063;-76
2022/03/21 01:14:58;;;;;;;100.28;57.67;;;;;;;;;;5087872;28;20051;-76
2022/03/21 01:17:28;;;;;;;115.63;60.75;;;;;;;;;;5083414;28;20151;-76
2022/03/21 01:19:55;;;;;;;95.03;58.05;;;;;;;;;;5085792;28;20066;-76
2022/03/21 01:22:23;;;;;;;129.77;67.68;;;;;;;;;;5093259;28;20486;-76
2022/03/21 01:24:50;;;;;;;99.43;58.20;;;;;;;;;;5087234;28;20044;-76
2022/03/21 01:27:17;;;;;;;115.35;63.40;;;;;;;;;;5085170;28;20432;-76
2022/03/21 01:29:45;;;;;;;101.70;59.75;;;;;;;;;;5089345;28;20083;-76
2022/03/21 01:32:12;;;;;;;105.85;62.47;;;;;;;;;;5085119;28;20415;-76
2022/03/21 01:34:40;;;;;;;104.97;59.85;;;;;;;;;;5111193;27;20045;-76
2022/03/21 01:37:08;;;;;;;129.38;66.43;;;;;;;;;;5086783;28;20468;-76
2022/03/21 01:39:35;;;;;;;114.60;61.92;;;;;;;;;;5088145;28;20059;-76
2022/03/21 01:42:02;;;;;;;114.15;65.35;;;;;;;;;;5086517;28;20059;-76
2022/03/21 01:44:29;;;;;;;121.28;67.40;;;;;;;;;;5090818;28;20051;-76
2022/03/21 01:46:56;;;;;;;118.55;65.32;;;;;;;;;;5087667;28;20048;-76
2022/03/21 01:49:26;;;;;;;107.03;61.75;;;;;;;;;;5086175;28;20059;-76
2022/03/21 01:51:55;;;;;;;100.82;60.53;;;;;;;;;;5106825;27;20044;-76
2022/03/21 01:57:09;;;;;;;101.63;60.65;;;;;;;;;;5084104;28;20559;-76
2022/03/21 01:59:37;;;;;;;110.47;63.50;;;;;;;;;;5092278;28;20060;-76
2022/03/21 02:02:06;;;;;;;94.10;57.50;;;;;;;;;;5085282;28;20127;-77
2022/03/21 02:04:34;;;;;;;126.35;68.50;;;;;;;;;;5083454;28;20391;-77
2022/03/21 02:07:02;;;;;;;102.05;62.00;;;;;;;;;;5083952;28;20063;-77
2022/03/21 02:09:30;;;;;;;114.32;65.97;;;;;;;;;;5088143;28;20078;-77
2022/03/21 02:11:58;;;;;;;100.78;59.75;;;;;;;;;;5087492;28;20146;-77
2022/03/21 02:14:25;;;;;;;96.90;59.20;;;;;;;;;;5085933;28;20052;-77
2022/03/21 02:16:53;;;;;;;113.22;62.40;;;;;;;;;;5088795;28;20060;-77
2022/03/21 02:19:23;;;;;;;89.60;55.85;;;;;;;;;;5087745;28;20047;-77
2022/03/21 02:21:56;;;;;;;104.20;62.92;;;;;;;;;;5087186;28;20479;-77
2022/03/21 02:24:27;;;;;;;108.75;62.05;;;;;;;;;;5082085;28;20067;-77
2022/03/21 02:26:57;;;;;;;111.95;64.82;;;;;;;;;;5088735;28;20052;-77
2022/03/21 02:29:26;;;;;;;119.00;65.63;;;;;;;;;;5087437;28;20072;-77
2022/03/21 02:31:55;;;;;;;93.68;56.50;;;;;;;;;;5088698;28;20128;-77
2022/03/21 02:34:24;;;;;;;100.57;59.42;;;;;;;;;;5085283;28;20128;-77
2022/03/21 02:36:52;;;;;;;103.30;60.20;;;;;;;;;;5085687;28;20168;-77
2022/03/21 02:39:20;;;;;;;104.22;63.42;;;;;;;;;;5088320;28;20051;-77
2022/03/21 02:41:47;;;;;;;106.68;62.58;;;;;;;;;;5085104;28;20051;-77
2022/03/21 02:44:15;;;;;;;123.38;68.22;;;;;;;;;;5084177;28;20044;-77
2022/03/21 02:46:43;;;;;;;126.88;69.72;;;;;;;;;;5086524;28;20128;-77
2022/03/21 02:49:10;;;;;;;113.10;65.78;;;;;;;;;;5079962;28;20120;-77
2022/03/21 02:51:39;;;;;;;103.20;59.10;;;;;;;;;;5083600;28;21129;-77
2022/03/21 02:54:06;;;;;;;106.03;62.40;;;;;;;;;;5085702;28;20052;-77
2022/03/21 02:56:33;;;;;;;113.22;66.13;;;;;;;;;;5086549;28;20048;-77
2022/03/21 02:59:00;;;;;;;107.75;65.03;;;;;;;;;;5091773;28;20060;-77
2022/03/21 03:01:29;;;;;;;112.78;64.00;;;;;;;;;;5084317;28;20052;-77
2022/03/21 03:03:56;;;;;;;118.47;65.57;;;;;;;;;;5080603;28;20387;-77
2022/03/21 03:06:24;;;;;;;125.93;68.45;;;;;;;;;;5085130;28;20056;-77
2022/03/21 03:08:51;;;;;;;93.15;58.17;;;;;;;;;;5087268;28;20063;-77
2022/03/21 03:11:18;;;;;;;112.95;65.50;;;;;;;;;;5084892;28;20104;-77
2022/03/21 03:13:45;;;;;;;117.72;66.38;;;;;;;;;;5085676;28;20142;-77
2022/03/21 03:16:12;;;;;;;121.47;67.20;;;;;;;;;;5089137;28;20132;-77
2022/03/21 03:18:44;;;;;;;135.00;70.88;;;;;;;;;;5087463;28;20693;-77
2022/03/21 03:21:13;;;;;;;103.53;61.30;;;;;;;;;;5085479;28;20047;-77
2022/03/21 03:23:42;;;;;;;110.45;63.95;;;;;;;;;;5085344;28;20052;-77
2022/03/21 03:26:09;;;;;;;118.22;64.00;;;;;;;;;;5085568;28;20052;-77
2022/03/21 03:28:38;;;;;;;124.32;67.40;;;;;;;;;;5083578;28;20056;-77
2022/03/21 03:31:06;;;;;;;149.48;69.78;;;;;;;;;;5088976;28;20072;-77
2022/03/21 03:33:33;;;;;;;97.45;58.42;;;;;;;;;;5086805;28;20115;-77
2022/03/21 03:36:02;;;;;;;126.80;70.65;;;;;;;;;;5087562;28;20049;-77
2022/03/21 03:38:29;;;;;;;111.63;65.32;;;;;;;;;;5088804;28;20048;-77
2022/03/21 03:40:57;;;;;;;110.70;65.70;;;;;;;;;;5087796;28;20457;-77
2022/03/21 03:43:25;;;;;;;136.32;73.38;;;;;;;;;;5084720;28;20600;-77
2022/03/21 03:45:52;;;;;;;116.90;67.88;;;;;;;;;;5085756;28;20487;-77
2022/03/21 03:48:20;;;;;;;143.68;71.28;;;;;;;;;;5085703;28;20052;-77
2022/03/21 03:50:48;;;;;;;114.50;63.58;;;;;;;;;;5086474;28;20051;-77
2022/03/21 03:53:17;;;;;;;121.63;68.63;;;;;;;;;;5084280;28;20040;-77
2022/03/21 03:55:44;;;;;;;107.68;62.88;;;;;;;;;;5087529;28;20048;-77
2022/03/21 03:58:11;;;;;;;107.05;62.58;;;;;;;;;;5082853;28;20052;-77
2022/03/21 04:00:39;;;;;;;96.80;56.22;;;;;;;;;;5085993;28;20486;-77
2022/03/21 04:05:52;;;;;;;87.97;53.97;;;;;;;;;;5083126;28;20860;-77
2022/03/21 04:08:20;;;;;;;107.57;58.67;;;;;;;;;;5084870;28;20048;-77
2022/03/21 04:10:48;;;;;;;112.95;63.17;;;;;;;;;;5082084;28;20068;-77
2022/03/21 04:13:15;;;;;;;104.22;63.25;;;;;;;;;;5083964;28;20102;-77
2022/03/21 04:15:42;;;;;;;129.35;68.40;;;;;;;;;;5083946;28;20051;-77
2022/03/21 04:18:09;;;;;;;112.55;64.50;;;;;;;;;;5090426;28;20059;-77
2022/03/21 04:20:39;;;;;;;123.80;68.88;;;;;;;;;;5090088;28;20150;-77
2022/03/21 04:23:07;;;;;;;121.47;68.68;;;;;;;;;;5082361;28;20050;-77
2022/03/21 04:25:36;;;;;;;129.27;74.03;;;;;;;;;;5084977;28;20048;-77
2022/03/21 04:28:08;;;;;;;123.30;69.53;;;;;;;;;;5084355;28;20756;-77
2022/03/21 04:30:35;;;;;;;108.32;62.63;;;;;;;;;;5080196;28;20105;-77
2022/03/21 04:33:02;;;;;;;116.88;67.43;;;;;;;;;;5088107;28;20044;-77
2022/03/21 04:35:30;;;;;;;104.55;63.92;;;;;;;;;;5087569;28;20060;-77
2022/03/21 04:37:57;;;;;;;121.45;69.68;;;;;;;;;;5088578;28;20083;-77
2022/03/21 04:40:24;;;;;;;130.52;70.75;;;;;;;;;;5084374;28;20048;-77
2022/03/21 04:42:53;;;;;;;140.38;76.57;;;;;;;;;;5081581;28;20546;-77
2022/03/21 04:45:20;;;;;;;123.53;71.00;;;;;;;;;;5088178;28;20047;-77
2022/03/21 04:47:47;;;;;;;111.55;65.32;;;;;;;;;;5088217;28;20068;-77
2022/03/21 04:50:14;;;;;;;132.82;72.10;;;;;;;;;;5082582;28;20060;-77
2022/03/21 04:52:42;;;;;;;116.60;66.93;;;;;;;;;;5081302;28;20048;-77
2022/03/21 04:55:10;;;;;;;118.50;66.88;;;;;;;;;;5086717;28;20052;-77
2022/03/21 04:57:37;;;;;;;106.28;63.53;;;;;;;;;;5084544;28;20055;-77
2022/03/21 05:00:06;;;;;;;104.60;63.55;;;;;;;;;;5089503;28;20088;-77
2022/03/21 05:02:34;;;;;;;123.43;71.03;;;;;;;;;;5091432;28;20055;-77
2022/03/21 05:05:02;;;;;;;123.40;69.60;;;;;;;;;;5081139;28;20052;-77
2022/03/21 05:07:29;;;;;;;127.15;68.85;;;;;;;;;;5084301;28;20055;-77
2022/03/21 05:09:56;;;;;;;128.23;71.30;;;;;;;;;;5076224;28;20057;-77
2022/03/21 05:12:25;;;;;;;130.23;72.57;;;;;;;;;;5078983;28;20044;-77
2022/03/21 05:14:52;;;;;;;125.45;70.32;;;;;;;;;;5082468;28;20052;-77
2022/03/21 05:17:21;;;;;;;118.00;67.60;;;;;;;;;;5075860;28;20052;-77
2022/03/21 05:19:48;;;;;;;145.15;76.22;;;;;;;;;;5081376;28;20141;-77
2022/03/21 05:22:16;;;;;;;115.35;68.18;;;;;;;;;;5085157;28;20067;-77
2022/03/21 05:35:58;;;;;;;149.98;76.80;;;;;;;;;;5085917;28;20059;-77
2022/03/21 05:38:26;;;;;;;147.02;77.70;;;;;;;;;;5090394;28;20531;-77
2022/03/21 05:40:56;;;;;;;106.57;65.40;;;;;;;;;;5087984;28;20090;-77
2022/03/21 05:43:24;;;;;;;131.23;71.88;;;;;;;;;;5086386;28;20044;-77
2022/03/21 05:45:52;;;;;;;124.20;70.72;;;;;;;;;;5077184;28;20062;-77
2022/03/21 05:51:05;;;;;;;139.25;74.03;;;;;;;;;;5107289;27;20051;-77
2022/03/21 05:53:33;;;;;;;151.48;78.40;;;;;;;;;;5081281;28;20051;-77
2022/03/21 05:56:01;;;;;;;134.88;75.80;;;;;;;;;;5082784;28;20063;-76
2022/03/21 05:58:28;;;;;;;123.97;68.57;;;;;;;;;;5087890;28;20139;-76
2022/03/21 06:00:55;;;;;;;135.45;71.93;;;;;;;;;;5078990;28;20113;-78
2022/03/21 06:03:25;;;;;;;130.93;69.50;;;;;;;;;;5078362;28;20143;-77
2022/03/21 06:05:55;;;;;;;151.73;76.47;;;;;;;;;;5074278;28;20489;-77
2022/03/21 06:08:23;;;;;;;141.60;72.00;;;;;;;;;;5078022;28;20120;-76
2022/03/21 06:10:51;;;;;;;135.48;70.85;;;;;;;;;;5078274;28;20097;-77
2022/03/21 06:13:18;;;;;;;166.55;74.25;;;;;;;;;;5078445;28;20483;-78
2022/03/21 06:15:47;;;;;;;147.52;72.10;;;;;;;;;;5079388;28;20046;-77
2022/03/21 06:18:14;;;;;;;133.68;67.75;;;;;;;;;;5106285;27;20410;-78
2022/03/21 06:20:43;;;;;;;187.07;81.88;;;;;;;;;;5080396;28;20534;-77
2022/03/21 06:23:10;;;;;;;117.35;64.40;;;;;;;;;;5078268;28;20052;-77
2022/03/21 06:25:38;;;;;;;118.85;64.85;;;;;;;;;;5076201;28;20169;-77
2022/03/21 06:28:05;;;;;;;138.00;71.85;;;;;;;;;;5077780;28;20458;-77
2022/03/21 06:30:33;;;;;;;155.13;79.00;;;;;;;;;;5079206;28;20490;-77
2022/03/21 06:33:00;;;;;;;133.48;72.05;;;;;;;;;;5076273;28;20063;-77
2022/03/21 06:35:27;;;;;;;136.07;71.60;;;;;;;;;;5080224;28;20056;-77
2022/03/21 06:37:56;;;;;;;148.23;76.53;;;;;;;;;;5078062;28;20477;-77
2022/03/21 06:40:25;;;;;;;129.00;67.78;;;;;;;;;;5076492;28;20043;-77
2022/03/21 06:42:52;;;;;;;142.68;72.32;;;;;;;;;;5075963;28;20060;-77
2022/03/21 06:45:19;;;;;;;117.07;65.70;;;;;;;;;;5080209;28;20047;-77
2022/03/21 06:47:46;;;;;;;106.15;62.75;;;;;;;;;;5077688;28;20416;-77
2022/03/21 06:50:14;;;;;;;129.88;70.30;;;;;;;;;;5072598;28;20052;-76
2022/03/21 06:52:43;;;;;;;122.45;67.88;;;;;;;;;;5078794;28;20056;-78
2022/03/21 06:55:12;;;;;;;111.90;64.55;;;;;;;;;;5072139;28;20672;-76
2022/03/21 06:57:40;;;;;;;115.50;64.35;;;;;;;;;;5072910;28;20058;-77
2022/03/21 07:00:07;;;;;;;120.82;63.63;;;;;;;;;;5070190;28;20060;-77
2022/03/21 07:02:35;;;;;;;115.35;63.22;;;;;;;;;;5074057;28;20075;-76
2022/03/21 07:05:02;;;;;;;111.53;63.28;;;;;;;;;;5073875;28;20059;-76
2022/03/21 07:07:29;;;;;;;108.43;63.00;;;;;;;;;;5082225;28;20055;-76
2022/03/21 07:09:56;;;;;;;101.63;59.35;;;;;;;;;;5068783;28;20068;-76
2022/03/21 07:12:26;;;;;;;110.43;63.25;;;;;;;;;;5082697;28;20406;-76
2022/03/21 07:14:53;;;;;;;106.53;62.25;;;;;;;;;;5078106;28;20080;-76
2022/03/21 07:17:20;;;;;;;98.07;58.95;;;;;;;;;;5083429;28;20082;-76
2022/03/21 07:19:47;;;;;;;95.38;58.63;;;;;;;;;;5080377;28;20056;-76
2022/03/21 07:22:15;;;;;;;100.57;60.58;;;;;;;;;;5079488;28;20052;-76
2022/03/21 07:24:42;;;;;;;95.75;57.97;;;;;;;;;;5082254;28;20043;-76
2022/03/21 07:27:09;;;;;;;87.13;56.35;;;;;;;;;;5078329;28;20510;-76
2022/03/21 07:29:38;;;;;;;101.38;62.50;;;;;;;;;;5077354;28;20073;-76
2022/03/21 07:32:07;;;;;;;89.63;56.33;;;;;;;;;;5079857;28;20132;-76
2022/03/21 07:34:34;;;;;;;90.45;54.65;;;;;;;;;;5070769;28;20075;-76
2022/03/21 07:37:01;;;;;;;80.00;51.47;;;;;;;;;;5076690;28;20169;-76
2022/03/21 07:39:29;;;;;;;93.82;58.15;;;;;;;;;;5074907;28;20359;-76
2022/03/21 07:42:00;;;;;;;77.10;50.80;;;;;;;;;;5073409;28;20866;-76
2022/03/21 07:47:21;;;;;;;72.72;48.15;;;;;;;;;;5074665;28;20054;-76
2022/03/21 07:49:49;;;;;;;73.38;48.90;;;;;;;;;;5078076;28;20052;-76
2022/03/21 07:52:18;;;;;;;72.43;48.45;;;;;;;;;;5079355;28;20144;-76
2022/03/21 07:54:45;;;;;;;71.07;46.38;;;;;;;;;;5071019;28;20060;-76
2022/03/21 07:57:13;;;;;;;74.63;47.25;;;;;;;;;;5069371;28;20048;-76
2022/03/21 07:59:40;;;;;;;60.75;43.15;;;;;;;;;;5076801;28;20383;-76
2022/03/21 08:02:07;;;;;;;67.93;45.70;;;;;;;;;;5075874;28;20434;-76
2022/03/21 08:04:36;;;;;;;62.72;41.67;;;;;;;;;;5071918;28;20055;-76
2022/03/21 08:07:03;;;;;;;68.13;42.80;;;;;;;;;;5074999;28;20612;-76
2022/03/21 08:09:31;;;;;;;64.07;43.17;;;;;;;;;;5075309;28;20106;-76
2022/03/21 08:12:00;;;;;;;60.10;40.22;;;;;;;;;;5074804;28;20402;-76
2022/03/21 08:14:27;;;;;;;51.35;36.35;;;;;;;;;;5072535;28;20048;-76
2022/03/21 08:16:55;;;;;;;59.08;40.88;;;;;;;;;;5076755;28;21108;-76
2022/03/21 08:19:24;;;;;;;54.58;37.38;;;;;;;;;;5075406;28;20049;-76
2022/03/21 08:21:54;;;;;;;57.55;37.15;;;;;;;;;;5075561;28;20060;-76
2022/03/21 08:24:21;;;;;;;51.47;36.53;;;;;;;;;;5076357;28;20048;-76
2022/03/21 08:26:48;;;;;;;48.88;33.60;;;;;;;;;;5078150;28;20059;-76
2022/03/21 08:29:16;;;;;;;46.13;32.00;;;;;;;;;;5074829;28;20052;-76
2022/03/21 08:31:43;;;;;;;43.55;27.33;;;;;;;;;;5072557;28;20052;-76
2022/03/21 08:34:11;;;;;;;48.67;30.70;;;;;;;;;;5080064;28;20052;-76
2022/03/21 08:36:38;;;;;;;46.65;27.85;;;;;;;;;;5078369;28;20048;-76
2022/03/21 08:39:09;;;;;;;37.50;25.95;;;;;;;;;;5073080;28;20121;-76
2022/03/21 08:41:36;;;;;;;39.70;26.42;;;;;;;;;;5072775;28;20044;-76
2022/03/21 08:44:03;;;;;;;39.08;25.83;;;;;;;;;;5079550;28;20052;-76
2022/03/21 08:46:30;;;;;;;43.45;26.38;;;;;;;;;;5074506;28;20052;-76
2022/03/21 08:51:43;;;;;;;35.97;23.95;;;;;;;;;;5109102;28;20402;-76
2022/03/21 08:54:12;;;;;;;36.95;24.17;;;;;;;;;;5075608;28;20568;-76
2022/03/21 08:56:40;;;;;;;33.80;23.60;;;;;;;;;;5072033;28;20507;-76
2022/03/21 08:59:07;;;;;;;35.38;22.65;;;;;;;;;;5077834;28;20060;-76
2022/03/21 09:01:34;;;;;;;40.65;25.25;;;;;;;;;;5066809;28;20053;-77
2022/03/21 09:04:02;;;;;;;35.45;23.67;;;;;;;;;;5099422;28;20040;-77
2022/03/21 09:06:29;;;;;;;38.63;23.10;;;;;;;;;;5080137;28;20859;-77
2022/03/21 09:08:58;;;;;;;39.47;22.95;;;;;;;;;;5077444;28;20048;-77
2022/03/21 09:11:27;;;;;;;38.58;22.75;;;;;;;;;;5076554;28;20127;-77
2022/03/21 09:13:54;;;;;;;37.00;23.05;;;;;;;;;;5078434;28;20056;-77
2022/03/21 09:16:21;;;;;;;34.17;23.70;;;;;;;;;;5083183;28;20040;-77
2022/03/21 09:18:49;;;;;;;42.13;24.00;;;;;;;;;;5083403;28;20059;-77
2022/03/21 09:21:16;;;;;;;34.15;22.55;;;;;;;;;;5078090;28;20056;-77
2022/03/21 09:23:44;;;;;;;35.92;22.38;;;;;;;;;;5078040;28;20555;-77
2022/03/21 09:26:11;;;;;;;38.10;22.23;;;;;;;;;;5081736;28;20047;-77
2022/03/21 09:28:42;;;;;;;35.28;22.50;;;;;;;;;;5082566;28;20555;-77
2022/03/21 09:31:09;;;;;;;35.88;22.35;;;;;;;;;;5081317;28;20062;-77
2022/03/21 09:33:39;;;;;;;32.80;21.48;;;;;;;;;;5084453;28;20052;-77
2022/03/21 09:36:06;;;;;;;34.95;21.98;;;;;;;;;;5083353;28;20048;-77
2022/03/21 09:38:34;;;;;;;31.13;20.98;;;;;;;;;;5084867;28;20830;-77
2022/03/21 09:41:03;;;;;;;36.42;22.23;;;;;;;;;;5080687;28;20044;-77
2022/03/21 09:43:31;;;;;;;36.08;22.70;;;;;;;;;;5087893;28;20058;-77
2022/03/21 09:46:00;;;;;;;36.75;22.67;;;;;;;;;;5083583;28;20056;-77
2022/03/21 09:48:28;;;;;;;37.45;23.20;;;;;;;;;;5085668;28;20044;-77
2022/03/21 09:50:56;;;;;;;35.92;23.77;;;;;;;;;;5083714;28;20043;-77
2022/03/21 09:53:24;;;;;;;36.25;22.35;;;;;;;;;;5082229;28;20056;-77
2022/03/21 09:55:52;;;;;;;38.22;23.45;;;;;;;;;;5083481;28;20060;-77
2022/03/21 09:58:20;;;;;;;35.72;23.25;;;;;;;;;;5083220;28;20048;-77
2022/03/21 10:00:49;;;;;;;38.90;23.17;;;;;;;;;;5080039;28;20138;-77
2022/03/21 10:03:18;;;;;;;36.38;22.63;;;;;;;;;;5082319;28;20109;-77
2022/03/21 10:05:46;;;;;;;36.67;22.58;;;;;;;;;;5085464;28;20051;-77
2022/03/21 10:08:21;;;;;;;35.97;21.95;;;;;;;;;;5084507;28;20048;-77
2022/03/21 10:10:58;;;;;;;36.00;22.33;;;;;;;;;;5083450;28;20044;-76
2022/03/21 10:13:27;;;;;;;37.05;22.40;;;;;;;;;;5085375;28;20101;-76
2022/03/21 10:16:07;;;;;;;36.53;22.02;;;;;;;;;;5086870;28;20410;-76
2022/03/21 10:18:36;;;;;;;36.20;20.67;;;;;;;;;;5086952;28;20062;-76
2022/03/21 10:21:13;;;;;;;31.90;21.27;;;;;;;;;;5085936;28;20200;-76
2022/03/21 10:23:40;;;;;;;33.63;20.67;;;;;;;;;;5082309;28;20442;-76
2022/03/21 10:26:27;;;;;;;33.17;20.50;;;;;;;;;;5082372;28;20055;-76
2022/03/21 10:28:55;;;;;;;34.17;20.80;;;;;;;;;;5084206;28;20165;-76
2022/03/21 10:31:35;;;;;;;30.92;19.73;;;;;;;;;;5083287;28;20063;-76
2022/03/21 10:34:05;;;;;;;31.23;19.55;;;;;;;;;;5083742;28;20059;-76
2022/03/21 10:36:32;;;;;;;27.45;18.02;;;;;;;;;;5082819;28;20117;-77
2022/03/21 10:39:13;;;;;;;35.42;19.95;;;;;;;;;;5077396;28;20059;-77
2022/03/21 10:41:42;;;;;;;34.00;19.92;;;;;;;;;;5078548;28;20066;-77
2022/03/21 10:44:10;;;;;;;32.55;19.40;;;;;;;;;;5081873;28;20051;-77
2022/03/21 10:46:37;;;;;;;29.45;18.92;;;;;;;;;;5082226;28;20049;-77
2022/03/21 10:49:08;;;;;;;27.73;18.10;;;;;;;;;;5083513;28;20048;-77
2022/03/21 10:51:47;;;;;;;28.50;18.52;;;;;;;;;;5083457;28;20062;-77
2022/03/21 10:54:30;;;;;;;24.80;17.58;;;;;;;;;;5083385;28;20055;-77
2022/03/21 10:56:57;;;;;;;27.73;17.45;;;;;;;;;;5081319;28;20675;-77
2022/03/21 10:59:24;;;;;;;25.17;17.80;;;;;;;;;;5089138;28;20083;-77
2022/03/21 11:01:51;;;;;;;26.88;17.17;;;;;;;;;;5084796;28;20056;-77
2022/03/21 11:04:20;;;;;;;25.58;16.58;;;;;;;;;;5082698;28;20051;-77
2022/03/21 11:06:47;;;;;;;24.73;16.13;;;;;;;;;;5083383;28;20043;-77
2022/03/21 11:09:16;;;;;;;28.15;17.25;;;;;;;;;;5080929;28;20056;-77
2022/03/21 11:11:43;;;;;;;22.52;15.40;;;;;;;;;;5080374;28;20051;-77
2022/03/21 11:14:10;;;;;;;23.40;16.35;;;;;;;;;;5078678;28;20406;-77
2022/03/21 11:16:38;;;;;;;25.23;15.60;;;;;;;;;;5083615;28;20123;-77
2022/03/21 11:19:06;;;;;;;24.55;16.35;;;;;;;;;;5083217;28;20105;-77
2022/03/21 11:21:35;;;;;;;22.17;14.50;;;;;;;;;;5079874;28;20048;-77
2022/03/21 11:24:02;;;;;;;21.27;14.68;;;;;;;;;;5082415;28;20117;-76
2022/03/21 11:26:33;;;;;;;18.30;11.75;;;;;;;;;;5087387;28;20472;-76
2022/03/21 11:29:09;;;;;;;19.45;11.73;;;;;;;;;;5082062;28;20051;-76
2022/03/21 11:31:43;;;;;;;17.85;11.65;;;;;;;;;;5083969;28;20056;-77
2022/03/21 11:34:16;;;;;;;18.88;13.35;;;;;;;;;;5082551;28;20052;-77
2022/03/21 11:36:52;;;;;;;17.52;12.23;;;;;;;;;;5084577;28;20048;-77
2022/03/21 11:39:19;;;;;;;19.88;13.77;;;;;;;;;;5082260;28;20503;-77
2022/03/21 11:42:03;;;;;;;20.85;13.50;;;;;;;;;;5084019;28;20047;-77
2022/03/21 11:44:30;;;;;;;;;;;;;;;;;;5076065;28;20056;-77
2022/03/21 11:47:12;;;;;;;16.42;10.50;;;;;;;;;;5104692;27;19924;-77
2022/03/21 11:49:44;;;;;;;16.67;11.15;;;;;;;;;;5081340;28;20498;-77
2022/03/21 11:52:13;;;;;;;17.98;11.20;;;;;;;;;;5085688;28;20088;-77
2022/03/21 11:54:40;;;;;;;16.73;11.23;;;;;;;;;;5086025;28;20045;-77
2022/03/21 11:57:08;;;;;;;19.88;11.25;;;;;;;;;;5086377;28;20044;-76
2022/03/21 11:59:53;;;;;;;17.30;12.13;;;;;;;;;;5079724;28;20056;-77
2022/03/21 12:02:52;;;;;;;18.30;11.55;;;;;;;;;;5084985;28;20436;-77
2022/03/21 12:05:34;;;;;;;15.70;10.65;;;;;;;;;;5082905;28;20048;-77
2022/03/21 12:08:17;;;;;;;17.60;10.75;;;;;;;;;;5079536;28;20052;-77
2022/03/21 12:10:45;;;;;;;14.55;10.07;;;;;;;;;;5079376;28;20048;-77
2022/03/21 12:13:19;;;;;;;14.05;10.13;;;;;;;;;;5076134;28;20127;-77
2022/03/21 12:15:51;;;;;;;14.77;11.40;;;;;;;;;;5085709;28;20047;-76
2022/03/21 12:18:20;;;;;;;18.25;12.35;;;;;;;;;;5112794;27;20051;-76
2022/03/21 12:20:49;;;;;;;15.55;12.93;;;;;;;;;;5083416;28;20055;-76
2022/03/21 12:23:18;;;;;;;16.70;12.93;;;;;;;;;;5083259;28;20044;-76
2022/03/21 12:25:50;;;;;;;14.40;11.50;;;;;;;;;;5083548;28;20048;-76
2022/03/21 12:29:31;;;;;;;17.00;12.38;;;;;;;;;;5086040;28;20817;-75
2022/03/21 12:31:26;;;;;;;16.05;11.48;;;;;;;;;;5078826;28;20154;-75
2022/03/21 12:33:54;;;;;;;17.80;12.48;;;;;;;;;;5080291;28;20060;-75
2022/03/21 12:36:34;;;;;;;14.95;11.82;;;;;;;;;;5087098;28;20063;-75
2022/03/21 12:39:01;;;;;;;19.50;12.23;;;;;;;;;;5080930;28;20061;-75
2022/03/21 12:41:35;;;;;;;16.65;11.80;;;;;;;;;;5082724;28;20044;-75
2022/03/21 12:44:02;;;;;;;16.15;11.25;;;;;;;;;;5079925;28;20375;-75
2022/03/21 12:46:31;;;;;;;17.20;12.75;;;;;;;;;;5084612;28;20048;-75
2022/03/21 12:48:59;;;;;;;18.40;12.50;;;;;;;;;;5086638;28;20055;-75
2022/03/21 12:51:28;;;;;;;18.80;12.80;;;;;;;;;;5080219;28;20130;-75
2022/03/21 12:53:57;;;;;;;17.48;13.10;;;;;;;;;;5079203;28;20058;-75
2022/03/21 12:56:26;;;;;;;15.15;12.60;;;;;;;;;;5083523;28;20476;-78
2022/03/21 12:58:59;;;;;;;16.17;12.82;;;;;;;;;;5081023;28;20715;-76
2022/03/21 13:01:26;;;;;;;;;;;;;;;;;;5090208;28;20055;-76
2022/03/21 13:10:32;;;;;;;17.13;12.05;;;;;;;;;;5084862;28;19970;-76
2022/03/21 13:12:28;;;;;;;14.50;12.00;;;;;;;;;;5086306;28;20126;-75
2022/03/21 13:15:02;;;;;;;17.58;12.75;;;;;;;;;;5084486;28;20048;-75
2022/03/21 13:17:48;;;;;;;13.32;11.05;;;;;;;;;;5084696;28;20064;-75
2022/03/21 13:20:17;;;;;;;17.45;12.05;;;;;;;;;;5084269;28;20139;-76
2022/03/21 13:22:45;;;;;;;15.55;12.00;;;;;;;;;;5078650;28;20838;-75
2022/03/21 13:25:25;;;;;;;16.73;13.25;;;;;;;;;;5085617;28;20933;-75
2022/03/21 13:27:52;;;;;;;15.18;11.32;;;;;;;;;;5086656;28;20060;-75
2022/03/21 13:30:21;;;;;;;14.23;8.77;;;;;;;;;;5088084;28;20056;-75
2022/03/21 13:32:48;;;;;;;12.48;9.75;;;;;;;;;;5084112;28;20043;-75
2022/03/21 13:35:15;;;;;;;12.93;9.38;;;;;;;;;;5086153;28;20047;-75
2022/03/21 13:37:42;;;;;;;12.32;9.60;;;;;;;;;;5085031;28;20052;-75
2022/03/21 13:40:12;;;;;;;14.50;10.13;;;;;;;;;;5087356;28;20063;-75
2022/03/21 13:42:39;;;;;;;12.88;10.50;;;;;;;;;;5079793;28;20506;-75
2022/03/21 13:45:07;;;;;;;14.25;10.63;;;;;;;;;;5076334;28;20040;-76
2022/03/21 13:47:48;;;;;;;14.63;11.98;;;;;;;;;;5083106;28;20048;-76
2022/03/21 13:50:15;;;;;;;16.02;11.57;;;;;;;;;;5085877;28;20056;-76
2022/03/21 13:52:44;;;;;;;14.77;11.90;;;;;;;;;;5077541;28;20058;-76
2022/03/21 13:55:12;;;;;;;15.60;11.13;;;;;;;;;;5082525;28;20050;-77
2022/03/21 13:57:46;;;;;;;11.80;8.93;;;;;;;;;;5082569;28;20051;-76
2022/03/21 14:00:15;;;;;;;13.20;10.07;;;;;;;;;;5080749;28;20471;-76
2022/03/21 14:02:43;;;;;;;12.23;9.48;;;;;;;;;;5081840;28;20093;-76
2022/03/21 14:05:19;;;;;;;13.88;10.32;;;;;;;;;;5078561;28;20050;-76
2022/03/21 14:07:48;;;;;;;12.82;9.95;;;;;;;;;;5079824;28;20136;-76
2022/03/21 14:10:17;;;;;;;12.95;10.02;;;;;;;;;;5081959;28;20392;-76
2022/03/21 14:12:48;;;;;;;15.07;9.80;;;;;;;;;;5081363;28;20056;-76
2022/03/21 14:15:16;;;;;;;13.45;11.07;;;;;;;;;;5087241;28;20051;-76
2022/03/21 14:17:45;;;;;;;14.65;9.98;;;;;;;;;;5082109;28;20055;-76
2022/03/21 14:20:13;;;;;;;14.95;10.75;;;;;;;;;;5086691;28;20765;-76
2022/03/21 14:22:42;;;;;;;13.45;10.20;;;;;;;;;;5082541;28;20063;-76
2022/03/21 14:27:50;;;;;;;11.77;9.30;;;;;;;;;;5078688;28;20044;-75
2022/03/21 14:30:18;;;;;;;14.82;9.63;;;;;;;;;;5083279;28;20060;-75
2022/03/21 14:32:46;;;;;;;12.15;10.15;;;;;;;;;;5081975;28;20520;-75
2022/03/21 14:35:13;;;;;;;12.73;9.57;;;;;;;;;;5082082;28;20369;-75
2022/03/21 14:37:40;;;;;;;13.35;9.45;;;;;;;;;;5085765;28;20040;-75
2022/03/21 14:40:09;;;;;;;16.75;10.70;;;;;;;;;;5080897;28;20066;-75
2022/03/21 14:42:36;;;;;;;13.13;10.27;;;;;;;;;;5083016;28;20049;-75
2022/03/21 14:45:04;;;;;;;13.93;11.55;;;;;;;;;;5086560;28;20064;-75
2022/03/21 14:47:31;;;;;;;12.38;10.38;;;;;;;;;;5080486;28;20821;-75
2022/03/21 14:49:58;;;;;;;12.00;9.63;;;;;;;;;;5084502;28;20145;-75
2022/03/21 14:52:26;;;;;;;13.60;10.30;;;;;;;;;;5084754;28;20109;-75
2022/03/21 14:54:53;;;;;;;12.88;9.57;;;;;;;;;;5112476;27;20058;-76
2022/03/21 14:57:22;;;;;;;14.35;10.13;;;;;;;;;;5084595;28;20058;-76
2022/03/21 14:59:50;;;;;;;13.75;9.90;;;;;;;;;;5084055;28;20052;-76
2022/03/21 15:02:18;;;;;;;15.65;10.55;;;;;;;;;;5082584;28;20052;-76
2022/03/21 15:04:46;;;;;;;13.55;10.07;;;;;;;;;;5082565;28;20505;-76
2022/03/21 15:07:14;;;;;;;13.20;9.93;;;;;;;;;;5084902;28;20056;-76